Kobuk Valley National Park, AK

12:29 PM AKST op 20 december 2014 (GMT -0900)
RAWS SALMON RIVER AK US | Change Station
CLOSE
Current Station
Persoonlijk weerstation
Location: Kiana, AK
Geometrische hoogte: 1201 ft
Nabije weerstations

Hoogte 1201 ft 67.46 °N, 159.84 °W | Updated 51 minutes ago

Clear
Helder
5 °F
Voelt als -12 °F
N
13
Wind Variabel Wind van NNO
Gusts 16.0 mijl/u

Vandaag
Hoog -- | Laag -- °F
--% Kans op neerslag
Gisteren
Hoog -- | Laag -- °F
Precip. -- inches
1:06 PM 2:11 PM
Afnemende halvemaan, 2% visible
Druk 29.50 inches
Zicht 10.0 mijlen
Wolken Helder
Gevoelstemperatuur -12 °F
Dauwpunt -2 °F
Vochtigheid 71%
Neerslag 0.00 inches
Dikte sneeuw Niet beschikbaar.
UV 0 van de 12
Pollen Niet beschikbaar.
Luchtkwaliteit Niet beschikbaar.
Flu Activity Niet beschikbaar.
METAR PAIK 202001Z AUTO 35003KT 10SM CLR M19/M22 A2936 RMK AO2 SLP990 T11941217 FZRANO

More Conditions Fewer Conditions

Druk 29.50 inches
Zicht 10.0 mijlen
Wolken Helder
Gevoelstemperatuur -12 °F
Dauwpunt -2 °F
Vochtigheid 71%
Neerslag 0.00 inches
Dikte sneeuw Niet beschikbaar.
UV 0 van de 12
Pollen Niet beschikbaar.
Luchtkwaliteit Niet beschikbaar.
Flu Activity Niet beschikbaar.
METAR PAIK 202001Z AUTO 35003KT 10SM CLR M19/M22 A2936 RMK AO2 SLP990 T11941217 FZRANO

More Conditions Fewer Conditions

10-Day Weather Forecast

Almanac

Astronomie

Dec. 20, 2014 Opkomst Ondergang
Werkelijke tijd
Burgerlijke schemering
Nautische schemering
Astronomische schemering
Maan
Golflengte van het zichtbare licht
Daglengte
Tomorrow will be .
, % of the Moon is Illuminated

Extremen vandaag

State Highs State Lows

Community

WunderPhotos

Upload Photos

1,779,284 foto’s ge-upload!

WunderBlogs® & News

Nearby

Luchtkwaliteit

  Luchtkwaliteit LK-index Verontreinigende stof
Not available.

Dikte sneeuw

Station Depth Geometrische hoogte

Aardbevingen

Stad Distance Mag. Time & Date
Minimum magnitude displayed is 2.5.

Watertemperatuur langs de kust

Plaats Temperatuur

Nabije weerstations